createdAt,value
2022-12-07T00:01:25.257Z,20.30
2022-12-07T00:04:16.554Z,20.30
2022-12-07T00:07:11.506Z,20.30
2022-12-07T00:09:59.763Z,20.30
2022-12-07T00:12:48.574Z,20.30
2022-12-07T00:15:30.567Z,20.30
2022-12-07T00:18:19.507Z,20.30
2022-12-07T00:21:04.205Z,20.30
2022-12-07T00:23:52.537Z,20.30
2022-12-07T00:26:36.129Z,20.30
2022-12-07T00:29:30.580Z,20.20
2022-12-07T00:32:12.431Z,20.20
2022-12-07T00:35:01.520Z,20.20
2022-12-07T00:37:45.169Z,20.30
2022-12-07T00:40:26.579Z,20.30
2022-12-07T00:43:14.622Z,20.30
2022-12-07T00:45:57.062Z,20.30
2022-12-07T00:48:45.524Z,20.30
2022-12-07T00:51:27.719Z,20.20
2022-12-07T00:54:17.510Z,20.20
2022-12-07T00:56:59.398Z,20.20
2022-12-07T00:59:48.516Z,20.20
2022-12-07T01:02:30.471Z,20.30
2022-12-07T01:05:19.563Z,20.30
2022-12-07T01:08:14.537Z,20.30
2022-12-07T01:11:02.343Z,20.30
2022-12-07T01:13:51.557Z,20.30
2022-12-07T01:16:34.789Z,20.20
2022-12-07T01:19:23.623Z,20.20
2022-12-07T01:22:05.355Z,20.20
2022-12-07T01:24:54.559Z,20.30
2022-12-07T01:27:38.408Z,20.30
2022-12-07T01:30:28.587Z,20.30
2022-12-07T01:33:23.526Z,20.20
2022-12-07T01:36:06.567Z,20.20
2022-12-07T01:38:55.520Z,20.20
2022-12-07T01:41:40.331Z,20.20
2022-12-07T01:44:37.536Z,20.20
2022-12-07T01:47:19.316Z,20.20
2022-12-07T01:50:06.550Z,20.30
2022-12-07T01:52:54.016Z,20.30
2022-12-07T01:55:42.633Z,20.30
2022-12-07T01:58:25.252Z,20.20
2022-12-07T02:01:14.683Z,20.20
2022-12-07T02:04:03.545Z,20.20
2022-12-07T02:06:59.597Z,20.20
2022-12-07T02:09:48.539Z,20.20
2022-12-07T02:12:31.718Z,20.30
2022-12-07T02:15:20.574Z,20.30
2022-12-07T02:18:09.741Z,20.30
2022-12-07T02:21:04.635Z,20.30
2022-12-07T02:23:55.800Z,20.20
2022-12-07T02:27:22.550Z,20.20
2022-12-07T02:30:16.556Z,20.20
2022-12-07T02:33:02.524Z,20.20
2022-12-07T02:35:58.537Z,20.30
2022-12-07T02:38:46.868Z,20.30
2022-12-07T02:41:40.562Z,20.30
2022-12-07T02:44:26.826Z,20.30
2022-12-07T02:47:20.575Z,20.20
2022-12-07T02:50:05.450Z,20.20
2022-12-07T02:52:53.620Z,20.20
2022-12-07T02:55:40.760Z,20.20
2022-12-07T02:58:44.553Z,20.30
2022-12-07T03:01:43.764Z,20.30
2022-12-07T03:04:35.788Z,20.30
2022-12-07T03:07:33.643Z,20.30
2022-12-07T03:10:22.839Z,20.30
2022-12-07T03:13:18.671Z,20.20
2022-12-07T03:16:06.845Z,20.20
2022-12-07T03:18:58.639Z,20.20
2022-12-07T03:21:45.784Z,20.30
2022-12-07T03:24:37.608Z,20.30
2022-12-07T03:27:26.775Z,20.30
2022-12-07T03:30:17.575Z,20.30
2022-12-07T03:33:13.592Z,20.30
2022-12-07T03:35:59.611Z,20.20
2022-12-07T03:38:53.611Z,20.10
2022-12-07T03:41:42.211Z,20.20
2022-12-07T03:44:33.565Z,20.20
2022-12-07T03:47:21.531Z,20.20
2022-12-07T03:50:14.571Z,20.30
2022-12-07T03:53:02.049Z,20.30
2022-12-07T03:55:54.651Z,20.40
2022-12-07T03:58:36.987Z,20.40
2022-12-07T04:01:25.653Z,20.50
2022-12-07T04:04:14.574Z,20.50
2022-12-07T04:07:09.630Z,20.60
2022-12-07T04:09:58.590Z,20.60
2022-12-07T04:12:41.823Z,20.50
2022-12-07T04:15:29.687Z,20.50
2022-12-07T04:18:11.855Z,20.50
2022-12-07T04:20:59.598Z,20.40
2022-12-07T04:23:40.738Z,20.40
2022-12-07T04:26:29.675Z,20.40
2022-12-07T04:29:12.866Z,20.50
2022-12-07T04:32:00.635Z,20.50
2022-12-07T04:34:54.010Z,20.50
2022-12-07T04:37:39.852Z,20.50
2022-12-07T04:40:27.598Z,20.60
2022-12-07T04:43:09.528Z,20.60
2022-12-07T04:46:02.615Z,20.60
2022-12-07T04:48:44.531Z,20.60
2022-12-07T04:51:36.634Z,20.60
2022-12-07T04:54:19.009Z,20.50
2022-12-07T04:57:06.681Z,20.50
2022-12-07T04:59:54.633Z,20.50
2022-12-07T05:02:37.850Z,20.50
2022-12-07T05:05:25.635Z,20.50
2022-12-07T05:08:21.493Z,20.60
2022-12-07T05:11:11.648Z,20.60
2022-12-07T05:13:52.866Z,20.60
2022-12-07T05:16:40.811Z,20.70
2022-12-07T05:19:23.801Z,20.70
2022-12-07T05:22:11.628Z,20.70
2022-12-07T05:24:52.954Z,20.60
2022-12-07T05:27:41.625Z,20.60
2022-12-07T05:30:30.648Z,20.60
2022-12-07T05:33:12.464Z,20.50
2022-12-07T05:36:02.649Z,20.50
2022-12-07T05:38:44.469Z,20.50
2022-12-07T05:41:47.630Z,20.60
2022-12-07T05:44:29.488Z,20.60
2022-12-07T05:47:18.636Z,20.70
2022-12-07T05:50:01.076Z,20.70
2022-12-07T05:52:43.640Z,20.70
2022-12-07T05:55:32.637Z,20.70
2022-12-07T05:58:31.961Z,20.70
2022-12-07T06:01:20.657Z,20.60
2022-12-07T06:04:02.564Z,20.60
2022-12-07T06:06:51.660Z,20.60
2022-12-07T06:09:41.760Z,20.60
2022-12-07T06:12:40.407Z,20.60
2022-12-07T06:15:28.659Z,20.60
2022-12-07T06:18:10.903Z,20.70
2022-12-07T06:20:58.722Z,20.70
2022-12-07T06:23:40.830Z,20.70
2022-12-07T06:26:30.652Z,20.60
2022-12-07T06:29:11.838Z,20.60
2022-12-07T06:31:59.687Z,20.50
2022-12-07T06:34:41.917Z,20.60
2022-12-07T06:37:30.709Z,20.60
2022-12-07T06:40:13.908Z,20.60
2022-12-07T06:43:03.732Z,20.60
2022-12-07T06:45:51.795Z,20.60
2022-12-07T06:48:33.575Z,20.60
2022-12-07T06:51:22.727Z,20.60
2022-12-07T06:54:04.964Z,20.60
2022-12-07T06:56:53.731Z,20.60
2022-12-07T06:59:36.907Z,20.50
2022-12-07T07:02:25.743Z,20.50
2022-12-07T07:05:07.908Z,20.50
2022-12-07T07:08:21.515Z,20.50
2022-12-07T07:11:04.666Z,20.50
2022-12-07T07:13:46.995Z,20.60
2022-12-07T07:16:36.713Z,20.60
2022-12-07T07:19:17.855Z,20.60
2022-12-07T07:22:05.774Z,20.50
2022-12-07T07:24:47.931Z,20.40
2022-12-07T07:27:35.711Z,19.80
2022-12-07T07:30:18.889Z,19.80
2022-12-07T07:33:09.669Z,19.90
2022-12-07T07:35:51.866Z,20.00
2022-12-07T07:38:40.711Z,20.10
2022-12-07T07:41:29.754Z,20.00
2022-12-07T07:48:55.159Z,21.20
2022-12-07T07:51:43.172Z,19.20
2022-12-07T07:54:24.312Z,16.00
2022-12-07T07:57:12.259Z,13.60
2022-12-07T07:59:53.407Z,11.90
2022-12-07T08:02:41.204Z,10.70
2022-12-07T08:05:24.449Z,9.70
2022-12-07T08:08:13.216Z,9.00
2022-12-07T08:10:54.342Z,8.60
2022-12-07T08:13:43.159Z,8.10
2022-12-07T08:16:32.226Z,7.80
2022-12-07T08:19:14.095Z,7.70
2022-12-07T08:22:04.258Z,7.40
2022-12-07T08:24:46.077Z,7.20
2022-12-07T08:27:35.271Z,7.00
2022-12-07T08:30:17.229Z,6.80
2022-12-07T08:33:06.222Z,6.70
2022-12-07T08:35:49.497Z,6.70
2022-12-07T08:38:39.218Z,6.70
2022-12-07T08:41:21.321Z,6.70
2022-12-07T08:44:09.172Z,6.60
2022-12-07T08:47:09.276Z,6.70
2022-12-07T08:49:53.657Z,6.70
2022-12-07T08:52:42.187Z,6.60
2022-12-07T08:55:25.970Z,6.70
2022-12-07T08:58:14.174Z,6.70
2022-12-07T09:00:56.139Z,6.60
2022-12-07T09:03:46.191Z,6.70
2022-12-07T09:06:28.478Z,6.90
2022-12-07T09:09:18.197Z,6.90
2022-12-07T09:12:01.568Z,6.90
2022-12-07T09:14:52.259Z,7.00
2022-12-07T09:17:40.197Z,7.00
2022-12-07T09:20:27.540Z,7.10
2022-12-07T09:23:16.217Z,7.20
2022-12-07T09:25:58.477Z,7.30
2022-12-07T09:28:48.274Z,7.40
2022-12-07T09:31:30.507Z,7.30
2022-12-07T09:34:19.230Z,7.40
2022-12-07T09:37:01.453Z,7.30
2022-12-07T09:39:50.655Z,7.40
2022-12-07T09:42:47.266Z,7.50
2022-12-07T09:45:37.597Z,7.50
2022-12-07T09:48:33.224Z,7.60
2022-12-07T09:51:23.108Z,7.80
2022-12-07T09:54:14.421Z,7.80
2022-12-07T09:56:56.195Z,7.90
2022-12-07T09:59:45.189Z,7.80
2022-12-07T10:02:37.332Z,7.70
2022-12-07T10:05:30.322Z,7.70
2022-12-07T10:08:21.293Z,7.70
2022-12-07T10:11:04.963Z,7.80
2022-12-07T10:13:56.292Z,7.80
2022-12-07T10:16:45.498Z,8.00
2022-12-07T10:19:37.231Z,8.10
2022-12-07T10:22:21.438Z,8.10
2022-12-07T10:25:18.225Z,8.00
2022-12-07T10:28:07.525Z,8.10
2022-12-07T10:30:59.326Z,8.00
2022-12-07T10:33:46.517Z,8.00
2022-12-07T10:36:44.241Z,8.00
2022-12-07T10:39:28.467Z,8.10
2022-12-07T10:42:25.228Z,8.30
2022-12-07T10:45:24.317Z,8.10
2022-12-07T10:48:27.270Z,7.90
2022-12-07T10:51:20.254Z,7.80
2022-12-07T10:54:12.519Z,7.60
2022-12-07T10:57:28.234Z,7.60
2022-12-07T11:00:18.573Z,7.70
2022-12-07T11:03:24.209Z,7.70
2022-12-07T11:06:15.441Z,7.60
2022-12-07T11:10:06.111Z,7.80
2022-12-07T11:12:41.679Z,7.80
2022-12-07T11:15:36.569Z,7.80
2022-12-07T11:18:26.532Z,7.90
2022-12-07T11:21:22.329Z,8.00
2022-12-07T11:24:10.755Z,8.10
2022-12-07T11:27:18.241Z,8.00
2022-12-07T11:30:31.218Z,8.00
2022-12-07T11:33:20.222Z,7.90
2022-12-07T11:36:18.279Z,7.90
2022-12-07T11:39:02.685Z,7.90
2022-12-07T11:41:54.234Z,8.00
2022-12-07T11:44:46.441Z,8.00
2022-12-07T11:47:43.270Z,8.10
2022-12-07T11:50:29.904Z,8.10
2022-12-07T11:53:25.235Z,8.10
2022-12-07T11:56:12.648Z,8.20
2022-12-07T11:59:06.289Z,8.10
2022-12-07T12:02:03.303Z,8.30
2022-12-07T12:04:58.409Z,8.30
2022-12-07T12:11:04.469Z,8.30
2022-12-07T12:14:41.978Z,8.50
2022-12-07T12:18:06.325Z,8.60
2022-12-07T12:20:52.553Z,8.70
2022-12-07T12:23:50.253Z,8.60
2022-12-07T12:26:42.320Z,8.50
2022-12-07T12:29:41.251Z,8.40
2022-12-07T12:32:31.845Z,8.40
2022-12-07T12:35:43.352Z,8.60
2022-12-07T12:38:35.594Z,8.50
2022-12-07T12:42:17.242Z,8.50
2022-12-07T12:45:21.578Z,8.70
2022-12-07T12:48:15.354Z,8.60
2022-12-07T12:51:26.927Z,8.60
2022-12-07T12:54:20.305Z,8.50
2022-12-07T12:57:09.148Z,8.50
2022-12-07T13:00:11.292Z,8.60
2022-12-07T13:02:55.474Z,8.70
2022-12-07T13:05:46.321Z,8.80
2022-12-07T13:08:34.813Z,8.80
2022-12-07T13:11:41.370Z,8.90
2022-12-07T13:15:16.266Z,9.00
2022-12-07T13:18:17.281Z,8.90
2022-12-07T13:21:07.265Z,8.80
2022-12-07T13:24:06.545Z,8.80
2022-12-07T13:26:55.324Z,9.00
2022-12-07T13:29:45.504Z,9.10
2022-12-07T13:32:35.326Z,9.10
2022-12-07T13:35:38.548Z,8.90
2022-12-07T13:38:34.279Z,8.80
2022-12-07T13:41:24.561Z,8.70
2022-12-07T13:44:19.351Z,8.70
2022-12-07T13:47:06.513Z,8.60
2022-12-07T13:49:57.282Z,8.70
2022-12-07T13:52:40.542Z,8.70
2022-12-07T13:55:30.313Z,8.70
2022-12-07T13:58:18.350Z,8.90
2022-12-07T14:01:02.087Z,8.90
2022-12-07T14:03:51.299Z,8.90
2022-12-07T14:06:33.838Z,8.80
2022-12-07T14:09:23.300Z,8.80
2022-12-07T14:12:08.812Z,8.80
2022-12-07T14:15:02.983Z,8.60
2022-12-07T14:17:53.684Z,8.40
2022-12-07T14:20:50.382Z,8.30
2022-12-07T14:23:32.363Z,8.20
2022-12-07T14:26:24.291Z,8.00
2022-12-07T14:29:36.326Z,7.80
2022-12-07T14:32:30.473Z,7.70
2022-12-07T14:35:22.378Z,7.80
2022-12-07T14:38:04.450Z,7.90
2022-12-07T14:40:52.320Z,8.00
2022-12-07T14:43:33.556Z,8.00
2022-12-07T14:46:23.345Z,8.00
2022-12-07T14:49:34.121Z,7.90
2022-12-07T14:55:32.504Z,7.80
2022-12-07T14:58:24.402Z,7.60
2022-12-07T15:01:05.617Z,7.60
2022-12-07T15:03:55.319Z,7.80
2022-12-07T15:06:43.391Z,7.90
2022-12-07T15:09:25.368Z,8.00
2022-12-07T15:12:13.306Z,8.00
2022-12-07T15:14:55.878Z,8.00
2022-12-07T15:17:43.385Z,7.90
2022-12-07T15:20:26.690Z,7.80
2022-12-07T15:23:14.349Z,7.90
2022-12-07T15:25:58.621Z,7.90
2022-12-07T15:28:47.332Z,8.00
2022-12-07T15:34:40.615Z,8.20
2022-12-07T15:37:37.315Z,8.20
2022-12-07T15:40:18.867Z,8.20
2022-12-07T15:43:07.338Z,8.20
2022-12-07T15:45:51.282Z,8.00
2022-12-07T15:48:40.515Z,8.00
2022-12-07T15:51:24.703Z,7.90
2022-12-07T15:54:16.369Z,7.80
2022-12-07T15:56:58.869Z,7.80
2022-12-07T15:59:47.404Z,7.80
2022-12-07T16:02:29.324Z,7.80
2022-12-07T16:05:18.430Z,7.80
2022-12-07T16:08:07.374Z,7.80
2022-12-07T16:10:50.606Z,7.80
2022-12-07T16:13:38.327Z,7.90
2022-12-07T16:16:23.029Z,7.90
2022-12-07T16:19:11.316Z,7.90
2022-12-07T16:21:53.539Z,7.90
2022-12-07T16:24:41.326Z,7.90
2022-12-07T16:27:24.540Z,7.90
2022-12-07T16:30:14.356Z,7.90
2022-12-07T16:33:02.125Z,7.90
2022-12-07T16:35:48.392Z,7.90
2022-12-07T16:38:37.361Z,7.90
2022-12-07T16:41:20.573Z,7.90
2022-12-07T16:44:14.364Z,7.90
2022-12-07T16:46:55.684Z,7.90
2022-12-07T16:49:44.349Z,7.90
2022-12-07T16:52:25.573Z,7.90
2022-12-07T16:55:15.352Z,7.90
2022-12-07T16:57:57.256Z,8.00
2022-12-07T17:00:48.556Z,8.00
2022-12-07T17:03:36.452Z,8.00
2022-12-07T17:06:21.230Z,8.10
2022-12-07T17:09:13.220Z,7.90
2022-12-07T17:11:57.318Z,8.00
2022-12-07T17:15:03.676Z,7.90
2022-12-07T17:17:46.971Z,7.90
2022-12-07T17:20:35.327Z,8.10
2022-12-07T17:23:18.901Z,8.20
2022-12-07T17:26:06.355Z,8.10
2022-12-07T17:28:55.387Z,8.10
2022-12-07T17:31:36.634Z,7.90
2022-12-07T17:34:26.328Z,7.90
2022-12-07T17:37:07.614Z,7.90
2022-12-07T17:39:58.647Z,7.90
2022-12-07T17:42:40.426Z,7.80
2022-12-07T17:45:29.411Z,7.90
2022-12-07T17:48:12.499Z,8.00
2022-12-07T17:51:19.359Z,7.90
2022-12-07T17:54:00.669Z,7.80
2022-12-07T17:56:49.404Z,7.80
2022-12-07T17:59:31.592Z,7.80
2022-12-07T18:02:19.388Z,7.90
2022-12-07T18:05:07.362Z,7.80
2022-12-07T18:07:50.730Z,7.80
2022-12-07T18:10:38.344Z,7.70
2022-12-07T18:13:38.399Z,7.70
2022-12-07T18:16:29.404Z,7.60
2022-12-07T18:19:14.811Z,7.60
2022-12-07T18:22:02.474Z,7.60
2022-12-07T18:24:45.650Z,7.50
2022-12-07T18:27:33.444Z,7.40
2022-12-07T18:30:42.063Z,7.40
2022-12-07T18:33:24.513Z,7.40
2022-12-07T18:36:14.380Z,7.30
2022-12-07T18:38:56.548Z,7.40
2022-12-07T18:41:46.441Z,7.40
2022-12-07T18:44:27.547Z,7.30
2022-12-07T18:47:15.434Z,7.10
2022-12-07T18:50:10.369Z,7.10
2022-12-07T18:52:52.273Z,7.00
2022-12-07T18:55:41.379Z,6.90
2022-12-07T18:58:24.665Z,6.90
2022-12-07T19:01:13.401Z,6.90
2022-12-07T19:03:55.363Z,7.00
2022-12-07T19:06:45.414Z,6.90
2022-12-07T19:09:28.445Z,6.90
2022-12-07T19:12:17.488Z,7.00
2022-12-07T19:15:01.095Z,7.00
2022-12-07T19:17:44.360Z,6.90
2022-12-07T19:20:33.410Z,6.90
2022-12-07T19:23:15.309Z,7.10
2022-12-07T19:26:04.382Z,7.10
2022-12-07T19:28:46.351Z,7.00
2022-12-07T19:31:36.490Z,6.90
2022-12-07T19:34:19.020Z,6.80
2022-12-07T19:37:07.473Z,6.80
2022-12-07T19:39:51.825Z,6.90
2022-12-07T19:42:42.388Z,6.80
2022-12-07T19:45:39.486Z,6.70
2022-12-07T19:48:36.485Z,6.60
2022-12-07T19:51:25.417Z,6.40
2022-12-07T19:54:08.595Z,6.30
2022-12-07T19:56:57.385Z,6.30
2022-12-07T19:59:39.648Z,6.20
2022-12-07T20:02:28.433Z,6.20
2022-12-07T20:05:12.086Z,6.30
2022-12-07T20:08:00.413Z,6.30
2022-12-07T20:10:49.399Z,6.10
2022-12-07T20:13:32.121Z,6.10
2022-12-07T20:16:21.393Z,6.00
2022-12-07T20:19:04.163Z,6.10
2022-12-07T20:21:53.481Z,6.10
2022-12-07T20:24:36.329Z,6.10
2022-12-07T20:27:25.418Z,6.10
2022-12-07T20:30:08.865Z,6.10
2022-12-07T20:32:57.463Z,6.00
2022-12-07T20:35:39.411Z,6.00
2022-12-07T20:38:30.401Z,6.00
2022-12-07T20:41:44.392Z,6.10
2022-12-07T20:44:27.008Z,6.00
2022-12-07T20:47:14.491Z,5.90
2022-12-07T20:50:02.664Z,5.90
2022-12-07T20:52:44.423Z,6.00
2022-12-07T20:55:34.395Z,6.00
2022-12-07T20:58:15.601Z,6.00
2022-12-07T21:01:08.455Z,5.90
2022-12-07T21:03:50.600Z,5.90
2022-12-07T21:06:38.486Z,5.90
2022-12-07T21:09:33.423Z,5.80
2022-12-07T21:12:16.868Z,5.90
2022-12-07T21:15:04.766Z,5.90
2022-12-07T21:17:46.495Z,5.80
2022-12-07T21:20:34.438Z,5.90
2022-12-07T21:23:16.250Z,5.90
2022-12-07T21:26:04.446Z,5.90
2022-12-07T21:28:47.836Z,6.00
2022-12-07T21:31:36.497Z,6.00
2022-12-07T21:34:24.410Z,6.00
2022-12-07T21:37:07.824Z,6.10
2022-12-07T21:39:55.416Z,6.00
2022-12-07T21:42:36.651Z,6.10
2022-12-07T21:45:26.417Z,6.10
2022-12-07T21:48:07.607Z,6.10
2022-12-07T21:50:56.480Z,6.00
2022-12-07T21:53:37.642Z,6.20
2022-12-07T21:56:29.465Z,6.20
2022-12-07T21:59:13.632Z,6.20
2022-12-07T22:02:05.526Z,6.20
2022-12-07T22:04:53.425Z,6.20
2022-12-07T22:07:35.491Z,6.40
2022-12-07T22:10:34.466Z,6.30
2022-12-07T22:13:16.220Z,6.30
2022-12-07T22:16:03.518Z,6.40
2022-12-07T22:18:46.773Z,6.50
2022-12-07T22:21:35.474Z,6.40
2022-12-07T22:24:17.542Z,6.30
2022-12-07T22:27:05.423Z,6.20
2022-12-07T22:29:47.316Z,6.20
2022-12-07T22:32:51.788Z,6.20
2022-12-07T22:35:41.451Z,6.20
2022-12-07T22:38:22.670Z,6.30
2022-12-07T22:41:17.527Z,6.30
2022-12-07T22:44:00.649Z,6.30
2022-12-07T22:46:49.537Z,6.30
2022-12-07T22:49:44.451Z,6.30
2022-12-07T22:52:35.605Z,6.30
2022-12-07T22:55:18.469Z,6.30
2022-12-07T22:58:09.723Z,6.30
2022-12-07T23:01:07.644Z,6.30
2022-12-07T23:03:50.187Z,6.30
2022-12-07T23:06:40.704Z,6.30
2022-12-07T23:09:27.778Z,6.40
2022-12-07T23:12:34.550Z,6.30
2022-12-07T23:15:17.839Z,6.20
2022-12-07T23:18:06.577Z,6.20
2022-12-07T23:20:50.044Z,6.20
2022-12-07T23:23:31.590Z,6.10
2022-12-07T23:26:25.577Z,6.10
2022-12-07T23:29:07.543Z,6.10
2022-12-07T23:31:56.490Z,6.10
2022-12-07T23:34:38.479Z,6.10
2022-12-07T23:37:28.502Z,6.20
2022-12-07T23:40:11.130Z,6.20
2022-12-07T23:43:00.528Z,6.10
2022-12-07T23:45:45.768Z,6.10
2022-12-07T23:48:34.439Z,6.00
2022-12-07T23:51:23.498Z,6.00
2022-12-07T23:54:06.693Z,5.90
2022-12-07T23:56:55.444Z,5.80
2022-12-07T23:59:38.650Z,5.80
